Park City, MT

12:45 AM MST on December 20, 2014 (GMT -0700)
NonFedAWOS LAURELMUNC MT US SUPERAWOS | Change Station
CLOSE
Current Station
Personal Weather Station
Location: Laurel, MT
Elevation: 3517 ft
Nearby Weather Stations

Elev 3517 ft 45.70 °N, 108.76 °W | Updated 30 minutes ago

Partly Cloudy
Partly Cloudy
34 °F
Feels Like 34 °F
N
0
Wind Variable Wind from North
Gusts 0.0 mph

Today
High -- | Low -- °F
--% Chance of Precip.
Yesterday
High -- | Low -- °F
Precip. -- in
7:52 AM 4:34 PM
Waning Crescent, 4% visible
Pressure 29.96 in
Visibility 10.0 miles
Clouds Few 9000 ft
Scattered Clouds 22000 ft
Windchill 34 °F
Dew Point 16 °F
Humidity 47%
Rainfall -999.00 in
Snow Depth Not available.
UV 0 out of 12
Pollen .10 out of 12
Air Quality Not available.
Flu Activity Not available.
METAR KBIL 200653Z 23011KT 10SM FEW090 SCT220 01/M06 A2990 RMK AO2 SLP145 T00111056 400441022

More Conditions Fewer Conditions

Pressure 29.96 in
Visibility 10.0 miles
Clouds Few 9000 ft
Scattered Clouds 22000 ft
Windchill 34 °F
Dew Point 16 °F
Humidity 47%
Rainfall -999.00 in
Snow Depth Not available.
UV 0 out of 12
Pollen .10 out of 12
Air Quality Not available.
Flu Activity Not available.
METAR KBIL 200653Z 23011KT 10SM FEW090 SCT220 01/M06 A2990 RMK AO2 SLP145 T00111056 400441022

More Conditions Fewer Conditions

10-Day Weather Forecast

Almanac

Astronomy

Dec. 20, 2014 Rise Set
Actual Time
Civil Twilight
Nautical Twilight
Astronomical Twilight
Moon
Length of Visible Light
Length of Day
Tomorrow will be .
, % of the Moon is Illuminated

Today's Extremes

State Highs State Lows

Community

WunderPhotos

Upload Photos

1,779,146 photos uploaded!

WunderBlogs® & News

Nearby

Air Quality

  Air Quality AQ Index Pollutant
Not available.

Snow Depth

Station Depth Elevation

Earthquake Activity

City Distance Mag. Time & Date
Minimum magnitude displayed is 2.5.

Coastal Water Temperatures

Place Temperature

Nearby Weather Stations